My Meet Scores
Gavyn Bumba, Phenom Gymnastics - MyMeetScores.com
Top100 | Top Teams | Upcoming Meets | Completed Meets | Latest | Add Scores | Help| Support | Bookmark and Share

Gavyn Bumba, Phenom Gymnastics
Personal Bests
LevelVault BarsBeamFloorAA
38.9258.100 8.1759.00034.200
49.2259.575 9.7509.60037.650
59.3009.150 9.1508.90036.500
79.5759.475 9.6509.55038.050
89.4259.700 9.3009.37537.275
Meet Scores
Date Meet Team Session Level Division Vault Bars Beam Floor AA
2019-03-29 Illinois Level 7 & 8 State Meet Phenom Gymnastics 2 8 Jr B 9.100 11T 9.700 7T 9.000 18 9.375 15 37.175 10
2019-03-01 NGCD Academy's 2019 Flip'r Invitational Phenom Gymnastics 4 8 Child 9.425 2 9.525 1 9.100 4 9.225 3T 37.275 3
2019-02-23 Kinetic Classic 2019 Phenom Gymnastics 1 8 Younger 9.325 1T 9.400 4T 9.050 6 9.200 9T 36.975 1
2019-02-01 The Big Chill Phenom Gymnastics 2 8 11 & under 0.000 1 9.275 2 9.300 2 9.350 1 37.125 1
2019-01-18 2019 Bravo Classic Phenom Gymnastics 5A 8 Child 8.775 6 8.750 14 8.900 11T 8.650 16 35.075 12
2018-12-14 2018 Aspire Classic Phenom Gymnastics 4 8 Younger 8.875 7 9.050 13 9.075 10 8.425 15 35.425 11
2018-12-07 2018 MEGA Magic Classic Phenom Gymnastics A4 8 Jr A 8.500 6T 8.625 13 9.000 4 8.850 10T 34.975 8
2018-03-23 Illinois Level 7 & 8 State Competition Phenom Gymnastics 10 7 Ch B 9.475 6T 9.375 15 9.650 6T 9.550 13 38.050 8
2018-03-02 2018 Flip'r Invitational Phenom Gymnastics 2 7 Child Age 8-10 9.025 7 9.425 4 9.650 2 9.450 2 37.550 2
2018-02-01 The Big Chill Phenom Gymnastics 5 7 10 11 yr 9.325 8 9.000 7 9.200 10 9.400 6T 36.925 8
2018-01-19 2018 Bravo Classic Phenom Gymnastics 4A 7 Child 9.500 4 9.350 9 8.550 21 9.475 4 36.875 9
2018-01-12 St Jude Benefit Meet Phenom Gymnastics 8B 7 JrA 9.575 4 9.400 2T 9.525 3 9.425 2 37.925 3
2017-12-15 2017 Aspire Classic Phenom Gymnastics 2 7 Jr A 9.500 9T 9.475 6T 9.250 8 9.425 4T 37.650 6
2017-12-08 MEGA Magic Classic 2017 Phenom Gymnastics 2B 7 Jr A 8.750 11 7.875 12 9.325 8T 9.075 9 35.025 12
2017-11-16 Paul Hamm Thanksgiving Classic - Women Phenom Gymnastics 3 7 Younger 9.250 43T 9.400 13T 9.325 10 9.300 28T 37.275 15
2017-10-28 Twist N Turn Phenom Gymnastics 1 5 Junior 9.300 1 9.150 1 9.150 1 8.900 1 36.500 1
2017-03-10 2017 Illinois Level 4 State Championships Phenom Gymnastics 3 4 Youth C 9.125 8T 9.575 1 9.525 3 9.425 2 37.650 1
2017-02-24 Kinetic Classic Phenom Gymnastics 5,6 4 All Ages 8.950 41T 9.200 35T 9.300 29T 9.525 3 36.975 15
2017-02-02 The Big Chill Phenom Gymnastics 2 4 9 Under 9.225 4T 9.100 8 9.300 8T 9.600 3T 37.225 5
2017-01-20 2017 Bravo Classic Phenom Gymnastics 06B 4 9yrs 9.000 2T 9.375 1 9.425 2 9.200 4 37.000 2
2016-12-16 2016 Aspire Classic Phenom Gymnastics 7 4 Middle 9.000 5T 9.350 4T 9.750 3 9.450 5 37.550 3
2016-12-02 Ultimate Wish Classic Phenom Gymnastics 5 4 Jr A 9.000 3 9.225 2 9.225 2T 9.500 1T 36.950 1
2016-03-10 2016 Illinois Level 4 State Meet Phenom Gymnastics All 4 Child-C 8.825 13 8.850 18 9.150 9 9.200 9 36.025 10
2016-02-20 Big Classic Phenom Gymnastics 2B 4 Child A 9.050 6 9.200 9 8.750 15 8.900 14 35.900 9
2016-01-15 2016 Bravo Classic Phenom Gymnastics 14A 4 6-8yrs 8.400 6 8.800 4 9.175 2 9.200 1T 35.575 3
2015-12-11 St. Nick Invite Phenom Gymnastics 5A 4 Child 8.800 2T 7.800 15 9.075 9 8.475 13 34.150 9
2014-12-12 2014 MEGA Magic Classic Phenom Gymnastics 1 3 Child A 8.925 11T 8.100 9 8.175 14 9.000 8 34.200 12
Get your scores on
a t-shirt, pin, or hoodie

www.lazysuits.com